LSZS/SMV METAR and TAF weather

Enter ICAO airport designator
Station Type Date Time Source
LSZS METAR 2021/09/28 16:50 UTC NOAA

LSZS 281650Z 20007KT 150V220 9999 BKN070 12/06 Q1024 RMK X TL170


Station Type Date Time Source
LSZS Decoded METAR 2021/09/28 16:50 UTC NOAA

Station name not available
Sep 28, 2021 - 12:50 PM EDT / 2021.09.28 1650 UTC
Wind: from the SSW (200 degrees) at 8 MPH (7 KT) (direction variable):0
Visibility: greater than 7 mile(s):0
Sky conditions: mostly cloudy
Temperature: 53 F (12 C)
Dew Point: 42 F (6 C)
Relative Humidity: 66%
Pressure (altimeter): 30.24 in. Hg (1024 hPa)
ob: LSZS 281650Z 20007KT 150V220 9999 BKN070 12/06 Q1024 RMK X TL170
cycle: 17

Station Type Date Time Source
LSZS TAF 2014/12/22 20:03 UTC NOAA

TAF
AMD LSZS 222054Z 2220/2224 CNL

Example: see airport list